x

Virginia Beach 64 Nm East Of Virginia Beach, Va (44014) Wave Buoy

8:50 - Wed 24th May 2017 All times are EDT. -4 hours from GMT.

  • Sig Wave height 4.6ft
  • Swell Direction
  • Peak Period 8s
  • Average Period 6s
  • Wind
    7mph, 9mph gusts
  • Sea Temp 64°f
  • Ar Temp 62°f
  • Sea Pressure 1005.2mb
  • Virginia Beach 64 Nm East Of Virginia Beach, Va
  • Virginia Beach 64 Nm East Of Virginia Beach, Va

More Historic Weather Station data

Upgrade to MSW Pro to gain access to the past 30 days of data for over 8000 Wavebouys and Weather Stations around the globe.

Join Pro

Comparision Forecast

View Surf forecast
   
Qua 05/24 8:50 4.5ft 8s 6s 7 9 mph 1005.2mb 64f 62f
7:50 5ft 7s 6s 9 9 mph 1004.5mb 64f 62f
6:50 4.5ft 7s 5s 9 11 mph 1004.4mb 64f 62f
5:50 4.5ft 7s 5s 9 11 mph 1003.7mb 64f 63f
4:50 4.5ft 7s 5s 11 13 mph 1003.5mb 64f 65f
3:50 4.5ft 7s 5s 16 18 mph 1003.4mb 64f 67f
2:50 5ft 7s 6s 13 13 mph 1003.5mb 64f 66f
1:50 4.5ft 8s 5s 16 18 mph 1003.8mb 64f 67f
12:50 5ft 8s 5s 16 18 mph 1004.1mb 65f 67f
Ter 05/23 11:50 4.5ft 7s 5s 18 20 mph 1004.2mb 65f 68f
10:50 4ft 7s 5s 16 18 mph 1004.6mb 66f 68f
9:50 4ft 5s 5s 18 22 mph 1005.2mb 66f 69f
8:50 4ft 7s 5s 7 7 mph 1005.8mb 66f 68f
7:50 4.5ft 6s 5s 11 16 mph 1006.4mb 66f 69f
6:50 4ft 5s 4s 16 20 mph 1007mb 66f 67f
5:50 4.5ft 4s 4s 20 22 mph 1007mb 65f 67f
4:50 4ft 5s 4s 20 27 mph 1007.6mb 65f 67f
3:50 3.5ft 4s 4s 18 20 mph 1008.9mb 65f 67f
2:50 3.5ft 4s 4s 16 20 mph 1009.9mb 65f 67f
1:50 4ft 8s 4s 18 20 mph 1010.9mb 64f 67f
12:50 4ft 5s 4s 16 20 mph 1011.9mb 64f 66f
11:50 4.5ft 4s 4s 13 18 mph 1012.7mb 64f 65f
10:50 4ft 4s 4s 13 16 mph 1013.5mb 64f 65f
9:50 4ft 6s 5s 16 18 mph 1013.4mb 64f 65f
8:50 3.5ft 7s 5s 18 20 mph 1013.3mb 64f 64f
7:50 3.5ft 6s 4s 18 22 mph 1013.2mb 64f 63f
6:50 3.5ft 7s 5s 18 22 mph 1013.3mb 64f 63f
5:50 3.5ft 8s 5s 7 9 mph 1013.3mb 64f 65f
4:50 3.5ft 8s 5s 4 4 mph 1012.9mb 64f 64f
3:50 3.5ft 8s 5s 4 4 mph 1013.4mb 65f 64f
2:50 3.5ft 8s 5s 7 9 mph 1013.4mb 65f 65f
1:50 3.5ft 8s 5s 9 9 mph 1013.9mb 65f 65f
12:50 3.5ft 8s 5s 11 13 mph 1014.3mb 65f 65f
Seg 05/22 11:50 3.5ft 8s 5s 11 13 mph 1014.2mb 66f 66f
10:50 3.5ft 8s 4s 18 22 mph 1014.2mb 67f 67f
9:50 3.5ft 8s 4s 18 20 mph 1014.2mb 69f 68f
8:50 3.5ft 9s 5s 18 22 mph 1013.8mb 69f 70f
7:50 3.5ft 9s 4s 18 20 mph 1014mb 69f 70f
6:50 3.5ft 8s 5s 18 22 mph 1013.6mb 69f 71f
5:50 3.5ft 8s 5s 20 22 mph 1013.7mb 69f 71f
4:50 4ft 9s 5s 18 20 mph 1014.1mb 69f 70f
3:50 4ft 9s 5s 13 18 mph 1015.1mb 69f 70f
2:50 4ft 6s 5s 13 16 mph 1015.8mb 68f 70f
1:50 4.5ft 8s 6s 13 16 mph 1016.8mb 68f 71f
12:50 4.5ft 9s 6s 11 13 mph 1017.8mb 69f 71f
11:50 4.5ft 7s 5s 11 13 mph 1018.6mb 69f 70f
10:50 4.5ft 7s 6s 11 13 mph 1019.1mb 69f 70f
9:50 5ft 7s 6s 9 11 mph 1019.5mb 69f 70f
8:50 5ft 7s 6s 9 11 mph 1019.9mb 69f 70f
7:50 5ft 8s 6s 9 11 mph 1020mb 69f 70f
6:50 5ft 7s 6s 11 13 mph 1019.7mb 69f 70f
5:50 5.5ft 10s 6s 11 13 mph 1019.7mb 69f 69f
4:50 6ft 8s 6s 11 13 mph 1019.6mb 69f 69f
3:50 6ft 7s 6s 11 11 mph 1019.8mb 69f 69f
2:50 6ft 8s 6s 9 11 mph 1020.4mb 69f 70f
1:50 5.5ft 8s 6s 13 16 mph 1020.3mb 69f 70f
12:50 5ft 10s 6s 11 13 mph 1021.5mb 69f 70f
Dom 05/21 11:50 5.5ft 9s 6s 9 9 mph 1022.2mb 69f 69f
10:50 6ft 10s 6s 13 16 mph 1022.1mb 69f 70f
9:50 5ft 7s 5s 16 18 mph 1022.1mb 69f 71f
8:50 5ft 7s 6s 13 16 mph 1022.1mb 69f 70f
7:50 6ft 6s 5s 11 16 mph 1022.5mb 70f 71f
6:50 6ft 8s 6s 16 18 mph 1021.7mb 69f 71f
5:50 7.5ft 7s 6s 16 18 mph 1021.7mb 69f 70f
4:50 7ft 8s 6s 18 20 mph 1022.4mb 69f 69f
3:50 7ft 7s 6s 18 22 mph 1022.6mb 69f 69f
2:50 7.5ft 7s 6s 22 27 mph 1022.5mb 68f 69f
1:50 7.5ft 8s 6s 22 25 mph 1023mb 67f 68f
12:50 8ft 8s 6s 22 27 mph 1023.4mb 67f 67f
11:50 7ft 8s 6s 20 25 mph 1024.3mb 67f 67f
10:50 8ft 8s 6s 16 20 mph 1024.9mb 66f 66f
9:50 7.5ft 8s 6s 18 22 mph 1024.4mb 66f 66f
8:50 8ft 8s 6s 20 25 mph 1023.9mb 66f 66f
7:50 8ft 8s 6s 20 25 mph 1022.9mb 66f 65f
6:50 8ft 8s 6s 18 22 mph 1023.4mb 66f 65f
5:50 8ft 8s 6s 20 22 mph 1023mb 66f 65f
4:50 7.5ft 8s 6s 20 25 mph 1022.3mb 66f 65f
3:50 7.5ft 8s 6s 20 25 mph 1022.4mb 65f 65f
2:50 8ft 8s 6s 20 22 mph 1022.5mb 65f 64f
1:50 7.5ft 8s 6s 20 22 mph 1022.9mb 64f 64f
12:50 7.5ft 7s 6s 18 22 mph 1023.2mb 64f 64f
Sáb 05/20 11:50 7.5ft 7s 6s 20 25 mph 1023.4mb 64f 63f
10:50 7.5ft 7s 6s 20 27 mph 1023.2mb 63f 63f
9:50 7ft 7s 5s 22 27 mph 1023.2mb 63f 63f
8:50 6.5ft 7s 5s 22 27 mph 1023.2mb 64f 62f
7:50 6ft 6s 5s 20 25 mph 1022.6mb 64f 62f
6:50 7ft 6s 5s 22 27 mph 1021.8mb 64f 63f
5:50 6.5ft 6s 5s 20 25 mph 1021.5mb 64f 63f
4:50 5ft 5s 4s 20 25 mph 1020.8mb 64f 64f
3:50 3.5ft 4s 4s 20 25 mph 1020.5mb 65f 64f
2:50 2.5ft 4s 4s 20 25 mph 1020.3mb 65f 64f
1:50 2ft 5s 4s 18 20 mph 1020.3mb 65f 64f